createdAt,value
2022-11-29T00:01:19.417Z,100025.41
2022-11-29T00:03:46.528Z,100022.13
2022-11-29T00:06:21.861Z,100028.06
2022-11-29T00:08:49.427Z,100021.59
2022-11-29T00:11:37.482Z,100014.38
2022-11-29T00:14:05.131Z,100017.00
2022-11-29T00:16:31.767Z,100015.28
2022-11-29T00:18:58.511Z,100008.72
2022-11-29T00:21:25.678Z,100012.22
2022-11-29T00:23:52.444Z,100007.59
2022-11-29T00:26:19.187Z,100010.88
2022-11-29T00:28:46.047Z,100009.44
2022-11-29T00:31:32.705Z,100013.19
2022-11-29T00:34:01.007Z,99999.38
2022-11-29T00:36:28.046Z,99984.72
2022-11-29T00:38:54.809Z,100001.19
2022-11-29T00:41:21.591Z,99996.38
2022-11-29T00:43:48.535Z,99995.53
2022-11-29T00:46:15.324Z,99993.91
2022-11-29T00:48:42.085Z,99988.28
2022-11-29T00:51:09.085Z,99927.84
2022-11-29T00:53:36.773Z,99985.44
2022-11-29T00:56:04.262Z,99975.66
2022-11-29T00:58:32.399Z,99977.69
2022-11-29T01:00:59.202Z,99963.16
2022-11-29T01:03:25.885Z,99960.47
2022-11-29T01:05:52.814Z,99951.13
2022-11-29T01:08:19.685Z,99953.75
2022-11-29T01:10:46.454Z,99949.13
2022-11-29T01:13:13.127Z,99956.09
2022-11-29T01:15:39.874Z,99935.56
2022-11-29T01:18:06.763Z,99949.25
2022-11-29T01:20:33.369Z,99933.25
2022-11-29T01:23:00.024Z,99937.84
2022-11-29T01:25:26.778Z,99940.00
2022-11-29T01:27:54.503Z,99938.34
2022-11-29T01:30:21.526Z,99938.22
2022-11-29T01:32:48.309Z,99922.22
2022-11-29T01:35:14.943Z,99923.88
2022-11-29T01:37:41.657Z,99922.44
2022-11-29T01:40:08.805Z,99926.25
2022-11-29T01:42:35.429Z,99919.97
2022-11-29T01:45:14.076Z,99925.59
2022-11-29T01:47:45.246Z,99925.09
2022-11-29T01:50:12.081Z,99920.47
2022-11-29T01:52:39.658Z,99927.88
2022-11-29T01:55:09.870Z,99921.59
2022-11-29T01:57:41.211Z,99930.84
2022-11-29T02:00:17.254Z,99939.91
2022-11-29T02:02:54.029Z,99956.22
2022-11-29T02:05:21.745Z,99954.28
2022-11-29T02:07:52.018Z,99967.78
2022-11-29T02:10:22.819Z,99973.31
2022-11-29T02:12:52.569Z,99971.69
2022-11-29T02:15:31.078Z,99974.16
2022-11-29T02:18:12.175Z,99965.09
2022-11-29T02:21:09.808Z,99962.28
2022-11-29T02:23:51.591Z,99965.88
2022-11-29T02:26:33.189Z,99965.09
2022-11-29T02:29:27.524Z,99965.09
2022-11-29T02:32:15.103Z,99964.44
2022-11-29T02:35:22.547Z,99962.50
2022-11-29T02:38:23.630Z,99967.47
2022-11-29T02:40:56.261Z,99964.34
2022-11-29T02:44:00.147Z,99977.03
2022-11-29T02:46:59.456Z,99968.50
2022-11-29T02:49:41.727Z,99962.22
2022-11-29T02:52:17.151Z,99967.16
2022-11-29T02:55:05.338Z,99967.78
2022-11-29T02:57:58.390Z,99969.63
2022-11-29T03:00:25.841Z,99971.91
2022-11-29T03:02:55.994Z,99961.69
2022-11-29T03:05:45.017Z,99972.44
2022-11-29T03:08:35.463Z,99969.66
2022-11-29T03:11:27.851Z,99974.09
2022-11-29T03:14:03.281Z,99962.69
2022-11-29T03:17:00.391Z,99960.72
2022-11-29T03:20:14.802Z,99958.09
2022-11-29T03:22:52.196Z,99952.31
2022-11-29T03:25:33.007Z,99955.44
2022-11-29T03:28:06.511Z,99964.34
2022-11-29T03:30:37.096Z,99959.22
2022-11-29T03:33:09.772Z,99962.84
2022-11-29T03:36:30.095Z,99964.50
2022-11-29T03:39:03.076Z,99952.78
2022-11-29T03:41:43.684Z,99973.72
2022-11-29T03:44:18.537Z,99969.28
2022-11-29T03:46:50.903Z,99959.22
2022-11-29T03:49:26.767Z,99973.38
2022-11-29T03:52:19.665Z,99978.00
2022-11-29T03:55:10.638Z,99985.06
2022-11-29T03:57:57.518Z,99992.69
2022-11-29T04:00:24.675Z,99973.25
2022-11-29T04:03:03.815Z,99998.75
2022-11-29T04:05:55.845Z,100001.75
2022-11-29T04:09:00.027Z,99992.50
2022-11-29T04:12:03.815Z,100008.38
2022-11-29T04:14:45.801Z,99998.94
2022-11-29T04:17:42.697Z,99994.63
2022-11-29T04:20:45.438Z,99974.91
2022-11-29T04:23:41.559Z,99962.03
2022-11-29T04:26:23.362Z,99985.63
2022-11-29T04:29:12.030Z,99980.38
2022-11-29T04:31:57.529Z,99980.50
2022-11-29T04:35:01.806Z,99972.28
2022-11-29T04:37:49.879Z,99973.56
2022-11-29T04:40:47.610Z,99978.34
2022-11-29T04:43:52.611Z,99977.88
2022-11-29T04:46:48.631Z,99986.75
2022-11-29T04:49:29.093Z,99982.50
2022-11-29T04:52:11.103Z,99988.59
2022-11-29T04:55:15.825Z,99977.69
2022-11-29T04:58:32.222Z,99985.97
2022-11-29T05:01:28.023Z,99993.53
2022-11-29T05:04:02.739Z,99996.03
2022-11-29T05:06:53.904Z,99998.16
2022-11-29T05:09:39.213Z,99998.16
2022-11-29T05:12:21.000Z,100004.25
2022-11-29T05:15:16.895Z,99992.03
2022-11-29T05:18:00.208Z,100003.41
2022-11-29T05:20:55.930Z,99996.19
2022-11-29T05:23:59.324Z,100009.38
2022-11-29T05:26:29.202Z,100008.53
2022-11-29T05:29:14.157Z,100007.22
2022-11-29T05:32:11.472Z,100007.06
2022-11-29T05:35:08.992Z,100013.16
2022-11-29T05:37:35.798Z,100018.13
2022-11-29T05:40:20.321Z,100027.16
2022-11-29T05:43:04.297Z,100034.09
2022-11-29T05:45:43.038Z,100031.59
2022-11-29T05:48:09.672Z,100034.09
2022-11-29T05:50:48.687Z,100023.88
2022-11-29T05:53:24.623Z,100036.72
2022-11-29T05:56:35.915Z,100007.03
2022-11-29T05:59:13.696Z,100021.56
2022-11-29T06:02:33.116Z,100024.50
2022-11-29T06:05:17.881Z,100028.97
2022-11-29T06:08:08.874Z,100013.31
2022-11-29T06:10:40.254Z,100026.84
2022-11-29T06:13:38.405Z,100026.66
2022-11-29T06:16:18.209Z,100028.81
2022-11-29T06:19:33.196Z,100030.47
2022-11-29T06:22:21.439Z,100033.75
2022-11-29T06:25:06.970Z,100037.75
2022-11-29T06:28:18.166Z,100034.56
2022-11-29T06:31:15.885Z,100034.63
2022-11-29T06:34:00.940Z,100023.72
2022-11-29T06:36:36.597Z,100030.09
2022-11-29T06:39:03.984Z,100029.28
2022-11-29T06:41:30.948Z,100023.22
2022-11-29T06:43:57.768Z,100014.44
2022-11-29T06:46:30.448Z,100030.69
2022-11-29T06:49:04.960Z,100030.72
2022-11-29T06:52:07.238Z,100006.63
2022-11-29T06:54:36.787Z,100037.97
2022-11-29T06:57:15.014Z,100027.78
2022-11-29T06:59:55.114Z,100023.50
2022-11-29T07:02:51.184Z,100024.81
2022-11-29T07:05:33.701Z,100026.78
2022-11-29T07:08:17.363Z,100019.72
2022-11-29T07:10:45.400Z,100010.63
2022-11-29T07:13:15.367Z,100007.66
2022-11-29T07:16:05.026Z,99997.94
2022-11-29T07:18:38.797Z,100003.38
2022-11-29T07:21:40.076Z,100009.19
2022-11-29T07:24:34.182Z,100009.81
2022-11-29T07:27:00.771Z,100008.16
2022-11-29T07:29:47.251Z,99999.59
2022-11-29T07:32:29.959Z,100001.06
2022-11-29T07:35:14.344Z,100003.38
2022-11-29T07:37:43.820Z,100000.75
2022-11-29T07:40:21.056Z,99995.81
2022-11-29T07:42:53.501Z,99996.28
2022-11-29T07:45:23.967Z,100009.50
2022-11-29T07:47:51.646Z,100004.34
2022-11-29T07:50:18.991Z,99999.06
2022-11-29T07:52:46.688Z,100003.19
2022-11-29T07:55:26.043Z,100012.09
2022-11-29T07:57:53.201Z,100003.03
2022-11-29T08:00:20.314Z,99993.44
2022-11-29T08:02:47.927Z,99998.00
2022-11-29T08:05:14.674Z,99986.84
2022-11-29T08:07:42.226Z,100006.09
2022-11-29T08:10:12.350Z,100006.94
2022-11-29T08:12:47.442Z,100010.72
2022-11-29T08:15:14.719Z,100000.50
2022-11-29T08:17:41.538Z,100006.22
2022-11-29T08:20:10.775Z,100011.13
2022-11-29T08:22:38.106Z,100011.41
2022-11-29T08:25:06.238Z,100012.34
2022-11-29T08:27:33.682Z,100011.53
2022-11-29T08:30:00.429Z,100018.78
2022-11-29T08:32:27.992Z,100020.53
2022-11-29T08:34:54.627Z,100019.75
2022-11-29T08:37:21.437Z,100017.63
2022-11-29T08:39:48.131Z,100014.53
2022-11-29T08:42:14.783Z,100020.28
2022-11-29T08:44:41.490Z,100020.94
2022-11-29T08:47:28.304Z,100023.41
2022-11-29T08:50:04.260Z,100029.63
2022-11-29T08:52:52.318Z,100024.34
2022-11-29T08:55:20.640Z,100013.03
2022-11-29T08:57:48.296Z,100016.94
2022-11-29T09:00:15.827Z,100014.66
2022-11-29T09:02:42.595Z,100009.91
2022-11-29T09:05:10.809Z,100025.47
2022-11-29T09:07:37.912Z,100025.97
2022-11-29T09:10:08.350Z,100008.31
2022-11-29T09:12:37.107Z,100011.81
2022-11-29T09:15:06.270Z,100016.94
2022-11-29T09:17:33.751Z,100013.50
2022-11-29T09:20:00.532Z,100000.84
2022-11-29T09:22:27.343Z,100013.03
2022-11-29T09:24:54.392Z,100019.09
2022-11-29T09:27:21.047Z,100006.78
2022-11-29T09:29:47.726Z,100009.38
2022-11-29T09:32:14.428Z,100006.25
2022-11-29T09:34:42.394Z,100000.84
2022-11-29T09:37:09.180Z,99980.19
2022-11-29T09:39:35.954Z,99983.75
2022-11-29T09:42:11.991Z,99992.34
2022-11-29T09:44:45.003Z,99986.50
2022-11-29T09:47:14.918Z,99992.38
2022-11-29T09:50:00.277Z,99996.25
2022-11-29T09:53:09.254Z,100006.16
2022-11-29T09:55:51.060Z,100002.66
2022-11-29T09:58:26.232Z,100001.44
2022-11-29T10:01:06.966Z,99994.72
2022-11-29T10:03:45.309Z,99992.91
2022-11-29T10:06:17.023Z,99992.97
2022-11-29T10:08:51.640Z,99986.13
2022-11-29T10:11:25.257Z,99980.06
2022-11-29T10:14:18.012Z,99966.09
2022-11-29T10:17:35.634Z,99963.88
2022-11-29T10:20:37.841Z,99964.88
2022-11-29T10:23:44.994Z,99963.34
2022-11-29T10:26:12.885Z,99955.91
2022-11-29T10:28:47.568Z,99954.91
2022-11-29T10:31:35.072Z,99962.94
2022-11-29T10:34:11.335Z,99956.97
2022-11-29T10:37:04.109Z,99952.63
2022-11-29T10:39:46.529Z,99952.03
2022-11-29T10:42:37.751Z,99940.94
2022-11-29T10:45:11.879Z,99938.09
2022-11-29T10:47:38.704Z,99932.41
2022-11-29T10:50:06.143Z,99939.94
2022-11-29T10:52:33.957Z,99935.22
2022-11-29T10:55:01.924Z,99934.03
2022-11-29T10:57:28.774Z,99934.91
2022-11-29T11:00:09.871Z,99928.09
2022-11-29T11:02:37.121Z,99926.53
2022-11-29T11:05:13.125Z,99923.34
2022-11-29T11:07:39.871Z,99920.16
2022-11-29T11:10:28.742Z,99916.78
2022-11-29T11:13:04.077Z,99912.53
2022-11-29T11:15:32.254Z,99906.75
2022-11-29T11:18:05.574Z,99916.25
2022-11-29T11:20:40.125Z,99912.78
2022-11-29T11:23:27.326Z,99910.38
2022-11-29T11:26:14.817Z,99906.81
2022-11-29T11:28:55.500Z,99910.94
2022-11-29T11:31:40.459Z,99889.53
2022-11-29T11:34:29.158Z,99893.81
2022-11-29T11:37:14.616Z,99906.66
2022-11-29T11:39:43.078Z,99905.19
2022-11-29T11:42:35.092Z,99906.84
2022-11-29T11:45:04.487Z,99905.31
2022-11-29T11:47:35.995Z,99905.66
2022-11-29T11:50:02.597Z,99908.00
2022-11-29T11:52:35.889Z,99913.56
2022-11-29T11:55:23.337Z,99907.78
2022-11-29T11:58:09.952Z,99907.84
2022-11-29T12:01:03.374Z,99900.75
2022-11-29T12:03:52.834Z,99902.47
2022-11-29T12:06:38.370Z,99896.84
2022-11-29T12:09:18.635Z,99897.22
2022-11-29T12:11:51.479Z,99899.78
2022-11-29T12:14:28.678Z,99899.63
2022-11-29T12:17:08.165Z,99905.22
2022-11-29T12:19:46.971Z,99899.16
2022-11-29T12:22:18.991Z,99896.03
2022-11-29T12:24:55.924Z,99902.63
2022-11-29T12:27:22.780Z,99892.53
2022-11-29T12:29:49.477Z,99904.25
2022-11-29T12:32:27.378Z,99905.78
2022-11-29T12:35:39.084Z,99900.97
2022-11-29T12:39:03.347Z,99904.78
2022-11-29T12:41:29.974Z,99902.16
2022-11-29T12:44:17.763Z,99898.81
2022-11-29T12:46:57.968Z,99901.78
2022-11-29T12:50:10.779Z,99900.16
2022-11-29T12:53:09.372Z,99902.91
2022-11-29T12:55:49.708Z,99902.16
2022-11-29T12:58:34.740Z,99911.06
2022-11-29T13:01:23.463Z,99899.56
2022-11-29T13:04:11.472Z,99893.84
2022-11-29T13:07:26.549Z,99902.25
2022-11-29T13:10:21.189Z,99901.41
2022-11-29T13:12:59.759Z,99906.50
2022-11-29T13:15:41.162Z,99912.44
2022-11-29T13:18:20.553Z,99907.16
2022-11-29T13:21:16.677Z,99901.69
2022-11-29T13:24:10.084Z,99904.06
2022-11-29T13:26:39.294Z,99896.47
2022-11-29T13:29:07.611Z,99899.25
2022-11-29T13:31:34.604Z,99903.38
2022-11-29T13:34:13.402Z,99890.63
2022-11-29T13:36:46.871Z,99900.19
2022-11-29T13:39:35.337Z,99896.38
2022-11-29T13:42:27.937Z,99892.75
2022-11-29T13:45:15.757Z,99901.38
2022-11-29T13:47:51.081Z,99911.13
2022-11-29T13:50:44.920Z,99910.94
2022-11-29T13:53:21.800Z,99915.41
2022-11-29T13:56:01.425Z,99887.22
2022-11-29T13:58:28.059Z,99909.59
2022-11-29T14:01:11.495Z,99908.44
2022-11-29T14:03:49.057Z,99920.53
2022-11-29T14:06:40.821Z,99934.19
2022-11-29T14:09:31.040Z,99926.94
2022-11-29T14:12:06.005Z,99921.97
2022-11-29T14:14:40.062Z,99936.13
2022-11-29T14:17:27.078Z,99926.22
2022-11-29T14:20:22.553Z,99944.69
2022-11-29T14:23:04.540Z,99935.75
2022-11-29T14:25:50.999Z,99943.84
2022-11-29T14:28:18.502Z,99942.03
2022-11-29T14:30:45.077Z,99949.72
2022-11-29T14:33:30.183Z,99952.44
2022-11-29T14:36:15.066Z,99948.75
2022-11-29T14:39:13.390Z,99952.25
2022-11-29T14:42:14.361Z,99940.84
2022-11-29T14:44:53.327Z,99943.16
2022-11-29T14:47:25.684Z,99946.50
2022-11-29T14:49:54.826Z,99928.34
2022-11-29T14:52:27.758Z,99926.69
2022-11-29T14:54:59.962Z,99927.53
2022-11-29T14:57:48.414Z,99938.75
2022-11-29T15:00:30.133Z,99935.63
2022-11-29T15:03:01.848Z,99938.75
2022-11-29T15:05:38.609Z,99945.34
2022-11-29T15:08:27.096Z,99948.91
2022-11-29T15:10:59.427Z,99949.09
2022-11-29T15:13:35.665Z,99957.03
2022-11-29T15:16:23.507Z,99957.81
2022-11-29T15:19:24.125Z,99962.44
2022-11-29T15:22:08.331Z,99966.06
2022-11-29T15:25:09.961Z,99978.41
2022-11-29T15:27:40.183Z,99981.50
2022-11-29T15:30:26.518Z,99966.41
2022-11-29T15:32:53.403Z,99966.41
2022-11-29T15:35:20.770Z,99973.50
2022-11-29T15:37:49.972Z,99966.13
2022-11-29T15:40:18.537Z,99980.28
2022-11-29T15:43:14.490Z,99973.03
2022-11-29T15:45:50.006Z,99959.81
2022-11-29T15:48:18.060Z,99975.84
2022-11-29T15:51:05.126Z,99987.19
2022-11-29T16:48:32.289Z,99986.38
2022-11-29T16:51:28.712Z,99998.91
2022-11-29T16:54:43.569Z,99992.03
